createdAt,value
2019-01-02T00:01:41.858Z,99.90
2019-01-02T00:04:11.016Z,99.90
2019-01-02T00:06:39.450Z,99.90
2019-01-02T00:09:08.698Z,99.90
2019-01-02T00:11:37.124Z,99.90
2019-01-02T00:14:05.871Z,99.90
2019-01-02T00:16:34.280Z,99.90
2019-01-02T00:19:03.024Z,99.90
2019-01-02T00:21:31.728Z,99.90
2019-01-02T00:24:00.158Z,99.90
2019-01-02T00:26:29.188Z,99.90
2019-01-02T00:28:57.876Z,99.90
2019-01-02T00:31:26.694Z,99.90
2019-01-02T00:33:55.100Z,99.90
2019-01-02T00:36:24.360Z,99.90
2019-01-02T00:38:52.804Z,99.90
2019-01-02T00:41:21.220Z,99.90
2019-01-02T00:43:50.030Z,99.90
2019-01-02T00:46:18.818Z,99.90
2019-01-02T00:48:47.302Z,99.90
2019-01-02T00:51:15.708Z,99.90
2019-01-02T00:53:44.294Z,99.90
2019-01-02T00:56:12.704Z,99.90
2019-01-02T00:58:41.392Z,99.90
2019-01-02T01:01:10.076Z,99.90
2019-01-02T01:03:38.505Z,99.90
2019-01-02T01:06:06.929Z,99.90
2019-01-02T01:08:35.735Z,99.90
2019-01-02T01:11:04.552Z,99.90
2019-01-02T01:13:32.960Z,99.90
2019-01-02T01:16:01.998Z,99.90
2019-01-02T01:18:30.459Z,99.90
2019-01-02T01:20:59.363Z,99.90
2019-01-02T01:23:27.796Z,99.90
2019-01-02T01:25:56.236Z,99.90
2019-01-02T01:28:25.027Z,99.90
2019-01-02T01:30:53.448Z,99.90
2019-01-02T01:33:22.592Z,99.90
2019-01-02T01:35:51.282Z,99.90
2019-01-02T01:38:19.786Z,99.90
2019-01-02T01:40:48.971Z,99.90
2019-01-02T01:43:17.423Z,99.90
2019-01-02T01:45:46.238Z,99.90
2019-01-02T01:48:14.664Z,99.90
2019-01-02T01:50:43.393Z,99.90
2019-01-02T01:53:12.488Z,99.90
2019-01-02T01:55:41.180Z,99.90
2019-01-02T01:58:09.861Z,99.90
2019-01-02T02:00:38.549Z,99.90
2019-01-02T02:03:07.359Z,99.90
2019-01-02T02:05:36.247Z,99.90
2019-01-02T02:08:04.678Z,99.90
2019-01-02T02:10:33.127Z,99.90
2019-01-02T02:13:02.016Z,99.90
2019-01-02T02:15:30.779Z,99.90
2019-01-02T02:17:59.472Z,99.90
2019-01-02T02:20:27.910Z,99.90
2019-01-02T02:22:56.351Z,99.90
2019-01-02T02:25:37.327Z,99.90
2019-01-02T02:28:05.770Z,99.90
2019-01-02T02:30:34.187Z,99.90
2019-01-02T02:33:02.615Z,99.90
2019-01-02T02:35:31.139Z,99.90
2019-01-02T02:37:59.936Z,99.90
2019-01-02T02:40:28.352Z,99.90
2019-01-02T02:42:56.796Z,99.90
2019-01-02T02:45:25.710Z,99.90
2019-01-02T02:47:54.503Z,99.90
2019-01-02T02:50:23.654Z,99.90
2019-01-02T02:52:52.557Z,99.90
2019-01-02T02:55:21.312Z,99.90
2019-01-02T02:57:49.745Z,99.90
2019-01-02T03:00:18.308Z,99.90
2019-01-02T03:02:47.080Z,99.90
2019-01-02T03:05:16.559Z,99.90
2019-01-02T03:07:45.374Z,99.90
2019-01-02T03:10:15.728Z,99.90
2019-01-02T03:12:44.634Z,99.90
2019-01-02T03:15:13.786Z,99.90
2019-01-02T03:17:42.203Z,99.90
2019-01-02T03:20:12.888Z,99.90
2019-01-02T03:22:41.692Z,99.90
2019-01-02T03:25:12.423Z,99.90
2019-01-02T03:27:41.307Z,99.90
2019-01-02T03:30:15.646Z,99.90
2019-01-02T03:32:44.720Z,99.90
2019-01-02T03:35:13.608Z,99.90
2019-01-02T03:37:42.292Z,99.90
2019-01-02T03:40:12.249Z,99.90
2019-01-02T03:42:41.015Z,99.90
2019-01-02T03:45:14.754Z,99.90
2019-01-02T03:47:43.198Z,99.90
2019-01-02T03:50:14.842Z,99.90
2019-01-02T03:52:43.264Z,99.90
2019-01-02T03:55:11.766Z,99.90
2019-01-02T03:57:40.212Z,99.90
2019-01-02T04:00:11.462Z,99.90
2019-01-02T04:02:40.216Z,99.90
2019-01-02T04:05:11.497Z,99.90
2019-01-02T04:07:41.058Z,99.90
2019-01-02T04:10:12.335Z,99.90
2019-01-02T04:12:40.762Z,99.90
2019-01-02T04:15:09.438Z,99.90
2019-01-02T04:17:37.875Z,99.90
2019-01-02T04:20:07.966Z,99.90
2019-01-02T04:22:36.385Z,99.90
2019-01-02T04:25:06.660Z,99.90
2019-01-02T04:27:35.100Z,99.90
2019-01-02T04:30:05.706Z,99.90
2019-01-02T04:32:34.132Z,99.90
2019-01-02T04:35:02.571Z,99.90
2019-01-02T04:37:31.367Z,99.90
2019-01-02T04:40:00.160Z,99.90
2019-01-02T04:42:28.644Z,99.90
2019-01-02T04:44:57.415Z,99.90
2019-01-02T04:47:25.859Z,99.90
2019-01-02T04:49:54.295Z,99.90
2019-01-02T04:52:22.730Z,99.90
2019-01-02T04:54:51.152Z,99.90
2019-01-02T04:57:19.615Z,99.90
2019-01-02T04:59:48.033Z,99.90
2019-01-02T05:02:16.476Z,99.90
2019-01-02T05:04:45.268Z,99.90
2019-01-02T05:07:13.677Z,99.90
2019-01-02T05:09:42.435Z,99.90
2019-01-02T05:12:10.860Z,99.90
2019-01-02T05:14:39.285Z,99.90
2019-01-02T05:17:07.707Z,99.90
2019-01-02T05:19:36.143Z,99.90
2019-01-02T05:22:04.556Z,99.90
2019-01-02T05:24:32.978Z,99.90
2019-01-02T05:27:01.707Z,99.90
2019-01-02T05:29:30.150Z,99.90
2019-01-02T05:31:58.804Z,99.90
2019-01-02T05:34:27.236Z,99.90
2019-01-02T05:36:55.660Z,99.90
2019-01-02T05:39:24.372Z,99.90
2019-01-02T05:41:53.175Z,99.90
2019-01-02T05:44:21.600Z,99.90
2019-01-02T05:46:50.053Z,99.90
2019-01-02T05:49:18.545Z,99.90
2019-01-02T05:51:47.324Z,99.90
2019-01-02T05:54:15.744Z,99.90
2019-01-02T05:56:44.164Z,99.90
2019-01-02T05:59:12.591Z,99.90
2019-01-02T06:01:41.352Z,99.90
2019-01-02T06:04:09.775Z,99.90
2019-01-02T06:06:38.195Z,99.90
2019-01-02T06:09:07.105Z,99.90
2019-01-02T06:11:35.533Z,99.90
2019-01-02T06:14:04.044Z,99.90
2019-01-02T06:16:32.752Z,99.90
2019-01-02T06:19:01.178Z,99.90
2019-01-02T06:21:29.690Z,99.90
2019-01-02T06:23:58.104Z,99.90
2019-01-02T06:26:26.543Z,99.90
2019-01-02T06:28:54.978Z,99.90
2019-01-02T06:31:23.759Z,99.90
2019-01-02T06:33:52.258Z,99.90
2019-01-02T06:36:20.700Z,99.90
2019-01-02T06:38:49.117Z,99.90
2019-01-02T06:41:17.547Z,99.90
2019-01-02T06:43:45.986Z,99.90
2019-01-02T06:46:14.407Z,99.90
2019-01-02T06:48:42.841Z,99.90
2019-01-02T06:51:11.600Z,99.90
2019-01-02T06:53:40.026Z,99.90
2019-01-02T06:56:08.771Z,99.90
2019-01-02T06:58:37.203Z,99.90
2019-01-02T07:01:06.249Z,99.90
2019-01-02T07:03:34.672Z,99.90
2019-01-02T07:06:03.113Z,99.90
2019-01-02T07:08:31.795Z,99.90
2019-01-02T07:11:00.224Z,99.90
2019-01-02T07:13:28.645Z,99.90
2019-01-02T07:15:57.096Z,99.90
2019-01-02T07:18:25.521Z,99.90
2019-01-02T07:20:54.307Z,99.90
2019-01-02T07:23:22.750Z,99.90
2019-01-02T07:25:51.221Z,99.90
2019-01-02T07:28:19.688Z,99.90
2019-01-02T07:30:48.436Z,99.90
2019-01-02T07:33:17.531Z,99.90
2019-01-02T07:35:57.596Z,99.90
2019-01-02T07:38:48.889Z,99.90
2019-01-02T07:41:52.359Z,99.90
2019-01-02T07:44:39.011Z,99.90
2019-01-02T07:47:34.916Z,99.90
2019-01-02T07:50:28.881Z,99.90
2019-01-02T07:53:09.189Z,99.90
2019-01-02T07:55:43.596Z,99.90
2019-01-02T07:58:30.288Z,99.90
2019-01-02T08:01:21.506Z,99.90
2019-01-02T08:04:01.764Z,99.90
2019-01-02T08:06:48.546Z,99.90
2019-01-02T08:09:44.192Z,99.90
2019-01-02T08:12:27.908Z,99.90
2019-01-02T08:15:05.587Z,99.90
2019-01-02T08:17:54.807Z,99.90
2019-01-02T08:20:42.927Z,99.90
2019-01-02T08:23:34.784Z,99.90
2019-01-02T08:26:15.637Z,99.90
2019-01-02T08:29:05.153Z,99.90
2019-01-02T08:31:42.236Z,99.90
2019-01-02T08:34:13.759Z,99.90
2019-01-02T08:36:53.824Z,99.90
2019-01-02T08:39:46.268Z,99.90
2019-01-02T08:42:34.339Z,99.90
2019-01-02T08:45:06.152Z,99.90
2019-01-02T08:47:43.264Z,99.90
2019-01-02T08:50:36.085Z,99.90
2019-01-02T08:53:10.128Z,99.90
2019-01-02T08:55:47.311Z,99.90
2019-01-02T08:58:40.355Z,99.90
2019-01-02T09:01:14.422Z,99.90
2019-01-02T09:04:05.775Z,99.90
2019-01-02T09:06:46.254Z,99.90
2019-01-02T09:09:38.808Z,99.90
2019-01-02T09:12:22.333Z,99.90
2019-01-02T09:15:05.628Z,99.90
2019-01-02T09:17:55.398Z,99.90
2019-01-02T09:20:32.938Z,99.90
2019-01-02T09:23:28.756Z,99.90
2019-01-02T09:26:05.866Z,99.90
2019-01-02T09:28:51.804Z,99.90
2019-01-02T09:31:25.931Z,99.90
2019-01-02T09:34:12.264Z,99.90
2019-01-02T09:36:52.073Z,99.90
2019-01-02T09:39:42.063Z,99.90
2019-01-02T09:42:34.164Z,99.90
2019-01-02T09:45:11.450Z,99.90
2019-01-02T09:47:48.187Z,99.90
2019-01-02T09:50:25.939Z,99.90
2019-01-02T09:53:15.932Z,99.90
2019-01-02T09:56:06.546Z,99.90
2019-01-02T09:58:54.839Z,99.90
2019-01-02T10:01:38.239Z,99.90
2019-01-02T10:04:21.608Z,99.90
2019-01-02T10:06:55.643Z,99.90
2019-01-02T10:10:00.725Z,99.90
2019-01-02T10:12:38.064Z,99.90
2019-01-02T10:15:27.290Z,99.90
2019-01-02T10:18:21.568Z,99.90
2019-01-02T10:21:07.991Z,99.90
2019-01-02T10:23:42.360Z,99.90
2019-01-02T10:26:29.074Z,99.90
2019-01-02T10:29:09.294Z,99.90
2019-01-02T10:31:46.949Z,99.90
2019-01-02T10:34:21.292Z,99.90
2019-01-02T10:37:01.296Z,99.90
2019-01-02T10:39:45.008Z,99.90
2019-01-02T10:42:35.864Z,99.90
2019-01-02T10:45:07.370Z,99.90
2019-01-02T10:47:51.016Z,99.90
2019-01-02T10:50:37.413Z,99.90
2019-01-02T10:53:35.820Z,99.90
2019-01-02T10:56:10.342Z,99.90
2019-01-02T10:58:50.910Z,99.90
2019-01-02T11:01:43.547Z,99.90
2019-01-02T11:04:26.860Z,99.90
2019-01-02T11:07:06.519Z,99.90
2019-01-02T11:09:38.032Z,99.90
2019-01-02T11:12:27.767Z,99.90
2019-01-02T11:14:59.292Z,99.90
2019-01-02T11:17:47.342Z,99.90
2019-01-02T11:20:24.748Z,99.90
2019-01-02T11:23:17.100Z,99.90
2019-01-02T11:25:54.555Z,99.90
2019-01-02T11:28:38.314Z,99.90
2019-01-02T11:31:41.708Z,99.90
2019-01-02T11:34:37.667Z,99.90
2019-01-02T11:37:37.814Z,99.90
2019-01-02T11:40:24.265Z,99.90
2019-01-02T11:43:23.350Z,99.90
2019-01-02T11:45:51.764Z,99.90
2019-01-02T11:48:20.210Z,99.90
2019-01-02T11:50:48.650Z,99.90
2019-01-02T11:53:17.074Z,99.90
2019-01-02T11:55:45.523Z,99.90
2019-01-02T11:58:13.952Z,99.90
2019-01-02T12:00:42.379Z,99.90
2019-01-02T12:03:10.805Z,99.90
2019-01-02T12:05:39.235Z,99.90
2019-01-02T12:08:07.994Z,99.20
2019-01-02T12:10:36.432Z,97.90
2019-01-02T12:13:05.136Z,97.60
2019-01-02T12:15:33.940Z,96.70
2019-01-02T12:18:02.712Z,96.60
2019-01-02T12:20:31.148Z,95.00
2019-01-02T12:22:59.585Z,94.10
2019-01-02T12:25:28.055Z,92.50
2019-01-02T12:27:56.494Z,92.30
2019-01-02T12:30:25.239Z,92.10
2019-01-02T12:32:54.014Z,91.30
2019-01-02T12:35:22.457Z,90.50
2019-01-02T12:37:51.212Z,84.00
2019-01-02T12:40:19.660Z,84.80
2019-01-02T12:42:48.076Z,81.20
2019-01-02T12:45:16.515Z,81.60
2019-01-02T12:47:44.944Z,82.50
2019-01-02T12:50:13.390Z,77.20
2019-01-02T12:52:41.831Z,74.70
2019-01-02T12:55:10.561Z,77.80
2019-01-02T12:57:38.985Z,72.90
2019-01-02T13:00:11.254Z,70.00
2019-01-02T13:02:48.652Z,64.20
2019-01-02T13:05:25.671Z,64.70
2019-01-02T13:08:09.322Z,62.00
2019-01-02T13:10:40.846Z,61.50
2019-01-02T13:13:21.092Z,60.90
2019-01-02T13:15:52.594Z,58.10
2019-01-02T13:18:26.923Z,57.50
2019-01-02T13:21:04.359Z,59.30
2019-01-02T13:23:35.884Z,59.70
2019-01-02T13:26:21.882Z,56.80
2019-01-02T13:28:56.216Z,56.10
2019-01-02T13:31:59.860Z,54.40
2019-01-02T13:34:34.150Z,54.10
2019-01-02T13:37:14.026Z,54.90
2019-01-02T13:40:00.826Z,53.50
2019-01-02T13:42:38.735Z,51.10
2019-01-02T13:45:10.512Z,50.40
2019-01-02T13:47:50.820Z,50.60
2019-01-02T13:50:22.520Z,50.90
2019-01-02T13:52:51.059Z,52.80
2019-01-02T13:55:19.618Z,50.30
2019-01-02T13:57:48.128Z,51.50
2019-01-02T14:00:16.549Z,50.50
2019-01-02T14:02:45.003Z,51.00
2019-01-02T14:05:16.507Z,50.20
2019-01-02T14:07:44.947Z,50.00
2019-01-02T14:10:13.639Z,50.20
2019-01-02T14:12:42.091Z,50.90
2019-01-02T14:15:10.589Z,50.60
2019-01-02T14:17:39.038Z,49.90
2019-01-02T14:20:08.854Z,48.80
2019-01-02T14:22:37.575Z,49.80
2019-01-02T14:25:06.636Z,48.40
2019-01-02T14:27:35.052Z,49.50
2019-01-02T14:30:04.552Z,48.90
2019-01-02T14:32:33.016Z,49.60
2019-01-02T14:35:01.807Z,50.50
2019-01-02T14:37:30.229Z,50.50
2019-01-02T14:39:59.015Z,49.10
2019-01-02T14:42:27.784Z,50.80
2019-01-02T14:44:56.574Z,49.80
2019-01-02T14:47:25.025Z,50.60
2019-01-02T14:49:53.571Z,51.40
2019-01-02T14:52:22.040Z,53.20
2019-01-02T14:54:50.560Z,53.80
2019-01-02T14:57:18.986Z,56.20
2019-01-02T14:59:47.666Z,57.60
2019-01-02T15:02:16.102Z,59.40
2019-01-02T15:04:44.530Z,58.80
2019-01-02T15:07:13.352Z,60.60
2019-01-02T15:09:41.786Z,61.80
2019-01-02T15:12:10.226Z,63.00
2019-01-02T15:14:38.659Z,64.20
2019-01-02T15:17:07.447Z,65.20
2019-01-02T15:19:35.872Z,66.40
2019-01-02T15:22:04.990Z,69.20
2019-01-02T15:24:33.624Z,69.90
2019-01-02T15:27:02.036Z,70.20
2019-01-02T15:29:30.468Z,73.20
2019-01-02T15:31:58.907Z,75.70
2019-01-02T15:34:27.639Z,75.10
2019-01-02T15:36:56.075Z,76.60
2019-01-02T15:39:24.503Z,75.80
2019-01-02T15:41:53.276Z,78.50
2019-01-02T15:44:21.702Z,78.60
2019-01-02T15:46:50.138Z,81.50
2019-01-02T15:49:18.551Z,82.80
2019-01-02T15:51:47.064Z,82.30
2019-01-02T15:54:15.481Z,84.10
2019-01-02T15:56:43.897Z,84.80
2019-01-02T16:02:41.516Z,88.40
2019-01-02T16:05:10.215Z,89.60
2019-01-02T16:07:39.037Z,90.70
2019-01-02T16:10:08.975Z,94.10
2019-01-02T16:12:37.417Z,94.00
2019-01-02T16:15:06.719Z,94.70
2019-01-02T16:17:35.415Z,94.90
2019-01-02T16:20:04.928Z,97.20
2019-01-02T16:26:02.443Z,99.90
2019-01-02T16:28:30.874Z,99.90
2019-01-02T16:30:59.286Z,99.90
2019-01-02T16:33:28.047Z,99.90
2019-01-02T16:35:56.493Z,99.90
2019-01-02T16:38:25.217Z,99.90
2019-01-02T16:40:53.727Z,99.90
2019-01-02T16:43:22.195Z,99.90
2019-01-02T16:45:51.123Z,99.90
2019-01-02T16:48:19.685Z,99.90
2019-01-02T16:50:48.128Z,99.90
2019-01-02T16:53:16.578Z,99.90
2019-01-02T16:55:45.014Z,99.90
2019-01-02T16:58:13.451Z,99.90
2019-01-02T17:00:42.163Z,99.90
2019-01-02T17:03:10.630Z,99.90
2019-01-02T17:05:39.455Z,99.90
2019-01-02T17:08:08.227Z,99.90
2019-01-02T17:10:36.660Z,99.90
2019-01-02T17:13:05.395Z,99.90
2019-01-02T17:15:34.021Z,99.90
2019-01-02T17:18:02.468Z,99.90
2019-01-02T17:20:31.241Z,99.90
2019-01-02T17:22:59.923Z,99.90
2019-01-02T17:25:28.343Z,99.90
2019-01-02T17:27:57.105Z,99.90
2019-01-02T17:30:25.819Z,99.90
2019-01-02T17:32:54.230Z,99.90
2019-01-02T17:35:22.949Z,99.90
2019-01-02T17:37:51.438Z,99.90
2019-01-02T17:40:20.221Z,99.90
2019-01-02T17:42:48.656Z,99.90
2019-01-02T17:45:17.096Z,99.90
2019-01-02T17:47:45.546Z,99.90
2019-01-02T17:50:13.993Z,99.90
2019-01-02T17:52:42.439Z,99.90
2019-01-02T17:55:10.888Z,99.90
2019-01-02T17:57:39.376Z,99.90
2019-01-02T18:00:10.438Z,99.90
2019-01-02T18:02:38.883Z,99.90
2019-01-02T18:05:07.333Z,99.90
2019-01-02T18:07:36.075Z,99.90
2019-01-02T18:10:06.139Z,99.90
2019-01-02T18:12:34.572Z,99.90
2019-01-02T18:15:03.284Z,99.90
2019-01-02T18:17:32.062Z,99.90
2019-01-02T18:20:00.507Z,99.90
2019-01-02T18:22:28.930Z,99.90
2019-01-02T18:24:57.382Z,99.90
2019-01-02T18:27:26.189Z,99.90
2019-01-02T18:29:54.624Z,99.90
2019-01-02T18:32:23.083Z,99.90
2019-01-02T18:34:51.614Z,99.90
2019-01-02T18:37:20.085Z,99.90
2019-01-02T18:39:48.835Z,99.90
2019-01-02T18:42:17.577Z,99.90
2019-01-02T18:44:46.012Z,99.90
2019-01-02T18:47:14.426Z,99.90
2019-01-02T18:49:42.864Z,99.90
2019-01-02T18:52:11.615Z,99.90
2019-01-02T18:54:40.405Z,99.90
2019-01-02T18:57:08.864Z,99.90
2019-01-02T18:59:37.276Z,99.90
2019-01-02T19:02:05.693Z,99.90
2019-01-02T19:04:34.133Z,99.90
2019-01-02T19:07:02.918Z,99.90
2019-01-02T19:09:31.339Z,99.90
2019-01-02T19:11:59.784Z,99.90
2019-01-02T19:14:28.572Z,99.90
2019-01-02T19:16:56.996Z,99.90
2019-01-02T19:19:25.736Z,99.90
2019-01-02T19:21:54.528Z,99.90
2019-01-02T19:24:23.019Z,99.90
2019-01-02T19:26:51.541Z,99.90
2019-01-02T19:29:19.981Z,99.90
2019-01-02T19:31:48.422Z,99.90
2019-01-02T19:34:16.853Z,99.90
2019-01-02T19:36:45.285Z,99.90
2019-01-02T19:39:13.715Z,99.90
2019-01-02T19:41:42.477Z,99.90
2019-01-02T19:44:11.002Z,99.90
2019-01-02T19:46:39.733Z,99.90
2019-01-02T19:49:08.189Z,99.90
2019-01-02T19:51:37.814Z,99.90
2019-01-02T19:54:06.345Z,99.90
2019-01-02T19:56:35.107Z,99.90
2019-01-02T19:59:03.540Z,99.90
2019-01-02T20:01:31.977Z,99.90
2019-01-02T20:04:00.426Z,99.90
2019-01-02T20:06:28.851Z,99.90
2019-01-02T20:08:57.281Z,99.90
2019-01-02T20:11:25.713Z,99.90
2019-01-02T20:13:54.145Z,99.90
2019-01-02T20:16:22.953Z,99.90
2019-01-02T20:18:51.382Z,99.90
2019-01-02T20:21:19.911Z,99.90
2019-01-02T20:23:48.327Z,99.90
2019-01-02T20:26:16.767Z,99.90
2019-01-02T20:28:45.183Z,99.90
2019-01-02T20:31:13.623Z,99.90
2019-01-02T20:33:42.155Z,99.90
2019-01-02T20:36:10.911Z,99.90
2019-01-02T20:38:39.351Z,99.90
2019-01-02T20:41:07.783Z,99.90
2019-01-02T20:43:36.548Z,99.90
2019-01-02T20:46:05.240Z,99.90
2019-01-02T20:48:33.671Z,99.90
2019-01-02T20:51:02.091Z,99.90
2019-01-02T20:53:30.523Z,99.90
2019-01-02T20:55:58.945Z,99.90
2019-01-02T20:58:27.369Z,99.90
2019-01-02T21:00:55.822Z,99.90
2019-01-02T21:03:24.556Z,99.90
2019-01-02T21:05:53.164Z,99.90
2019-01-02T21:08:21.597Z,99.90
2019-01-02T21:10:50.020Z,99.90
2019-01-02T21:13:18.451Z,99.90
2019-01-02T21:15:46.953Z,99.90
2019-01-02T21:18:15.391Z,99.90
2019-01-02T21:20:43.843Z,99.90
2019-01-02T21:23:12.268Z,99.90
2019-01-02T21:25:40.867Z,99.90
2019-01-02T21:28:09.354Z,99.90
2019-01-02T21:30:37.782Z,99.90
2019-01-02T21:33:06.223Z,99.90
2019-01-02T21:35:34.970Z,99.90
2019-01-02T21:38:03.759Z,99.90
2019-01-02T21:40:32.173Z,99.90
2019-01-02T21:43:01.005Z,99.90
2019-01-02T21:45:29.811Z,99.90
2019-01-02T21:47:58.280Z,99.90
2019-01-02T21:50:26.703Z,99.90
2019-01-02T21:52:55.572Z,99.90
2019-01-02T21:55:24.112Z,99.90
2019-01-02T21:57:52.862Z,99.90
2019-01-02T22:00:21.480Z,99.90
2019-01-02T22:02:49.905Z,99.90
2019-01-02T22:05:18.318Z,99.90
2019-01-02T22:07:46.753Z,99.90
2019-01-02T22:10:15.451Z,99.90
2019-01-02T22:12:43.879Z,99.90
2019-01-02T22:15:12.303Z,99.90
2019-01-02T22:17:41.100Z,99.90
2019-01-02T22:20:09.533Z,99.90
2019-01-02T22:22:37.973Z,99.90
2019-01-02T22:25:06.914Z,99.90
2019-01-02T22:27:35.344Z,99.90
2019-01-02T22:30:04.732Z,99.90
2019-01-02T22:32:33.174Z,99.90
2019-01-02T22:35:01.617Z,99.90
2019-01-02T22:37:30.039Z,99.90
2019-01-02T22:39:58.495Z,99.90
2019-01-02T22:42:26.941Z,99.90
2019-01-02T22:44:55.621Z,99.90
2019-01-02T22:47:24.054Z,99.90
2019-01-02T22:49:52.579Z,99.90
2019-01-02T22:52:21.266Z,99.90
2019-01-02T22:54:49.688Z,99.90
2019-01-02T22:57:18.137Z,99.90
2019-01-02T22:59:46.574Z,99.90
2019-01-02T23:02:16.736Z,99.90
2019-01-02T23:05:02.120Z,99.90
2019-01-02T23:07:48.819Z,99.90
2019-01-02T23:10:19.245Z,99.90
2019-01-02T23:13:07.924Z,99.90
2019-01-02T23:15:55.795Z,99.90
2019-01-02T23:18:38.441Z,99.90
2019-01-02T23:21:14.766Z,99.90
2019-01-02T23:24:01.217Z,99.90
2019-01-02T23:26:47.700Z,99.90
2019-01-02T23:29:20.726Z,99.90
2019-01-02T23:32:00.305Z,99.90
2019-01-02T23:34:38.978Z,99.90
2019-01-02T23:37:09.066Z,99.90
2019-01-02T23:39:48.278Z,99.90
2019-01-02T23:42:18.372Z,99.90
2019-01-02T23:44:48.427Z,99.90
2019-01-02T23:47:27.693Z,99.90
2019-01-02T23:50:10.022Z,99.90
2019-01-02T23:52:52.814Z,99.90
2019-01-02T23:55:25.907Z,99.90
2019-01-02T23:58:12.562Z,99.90
